Time;durP1;ratioP1;P1;durP2;ratioP2;P2;SDS_P1;SDS_P2;PMS_P1;PMS_P2;Temp;Humidity;BMP_temperature;BMP_pressure;BME280_temperature;BME280_humidity;BME280_pressure;Samples;Min_cycle;Max_cycle;Signal;HPM_P1;HPM_P2
2022/10/05 00:00:49;;;;;;;1.35;1.35;;;;;;;13.39;55.14;100633.13;5047929;28;20051;-86
2022/10/05 00:03:15;;;;;;;1.25;1.20;;;;;;;13.58;54.65;100631.13;5048330;28;20039;-85
2022/10/05 00:05:41;;;;;;;;;;;;;;;13.68;54.61;100638.97;5049002;28;20041;-86
2022/10/05 00:08:09;;;;;;;0.50;0.50;;;;;;;13.63;53.51;100643.47;5048193;28;20007;-86
2022/10/05 00:10:34;;;;;;;0.32;0.32;;;;;;;13.21;53.48;100622.72;5048610;28;20086;-85
2022/10/05 00:13:00;;;;;;;;;;;;;;;13.21;53.29;100639.47;5048481;28;20053;-85
2022/10/05 00:15:25;;;;;;;0.30;0.30;;;;;;;12.56;55.14;100617.13;5048313;28;19924;-85
2022/10/05 00:17:50;;;;;;;;;;;;;;;12.52;55.25;100642.75;5049032;28;20037;-86
2022/10/05 00:20:25;;;;;;;1.45;0.88;;;;;;;12.32;55.33;100605.88;5047833;28;20337;-85
2022/10/05 00:22:56;;;;;;;1.08;1.08;;;;;;;12.44;55.70;100650.75;5047654;28;20033;-85
2022/10/05 00:25:22;;;;;;;0.50;0.50;;;;;;;12.29;56.86;100638.50;5047934;28;20025;-85
2022/10/05 00:27:59;;;;;;;0.40;0.40;;;;;;;12.17;57.10;100628.00;5047865;28;20032;-85
2022/10/05 00:30:31;;;;;;;0.40;0.40;;;;;;;12.36;57.08;100647.31;5047746;28;20040;-86
2022/10/05 00:32:56;;;;;;;1.20;1.20;;;;;;;12.19;57.97;100647.41;5047591;28;20029;-85
2022/10/05 00:35:22;;;;;;;;;;;;;;;12.26;58.26;100651.75;5048828;28;20091;-85
2022/10/05 00:37:52;;;;;;;0.75;0.75;;;;;;;12.10;57.79;100621.91;5048176;28;19920;-86
2022/10/05 00:40:38;;;;;;;0.50;0.50;;;;;;;12.35;57.87;100651.69;5047600;28;20047;-85
2022/10/05 00:43:34;;;;;;;0.30;0.30;;;;;;;12.31;57.69;100643.78;5047505;28;20138;-85
2022/10/05 00:46:20;;;;;;;1.10;1.10;;;;;;;12.46;56.76;100646.31;5047561;28;20044;-84
2022/10/05 00:48:52;;;;;;;0.38;0.38;;;;;;;12.44;57.38;100645.47;5047873;28;20033;-87
2022/10/05 00:51:28;;;;;;;0.40;0.40;;;;;;;12.35;57.23;100616.44;5045847;28;20406;-84
2022/10/05 00:54:00;;;;;;;0.40;0.40;;;;;;;12.62;57.04;100639.16;5047839;28;20033;-85
2022/10/05 00:57:08;;;;;;;0.40;0.40;;;;;;;12.48;57.12;100625.13;5047438;28;20031;-85
2022/10/05 00:59:47;;;;;;;1.95;1.63;;;;;;;12.60;56.84;100627.69;5039182;28;20515;-85
2022/10/05 01:02:38;;;;;;;0.70;0.70;;;;;;;12.39;57.11;100615.53;5047315;28;20110;-85
2022/10/05 01:05:28;;;;;;;0.20;0.20;;;;;;;12.20;57.16;100588.31;5039910;28;20266;-85
2022/10/05 01:08:14;;;;;;;0.30;0.30;;;;;;;12.36;56.98;100634.06;5047167;28;20062;-85
2022/10/05 01:11:06;;;;;;;0.20;0.20;;;;;;;12.40;57.48;100641.06;5046710;28;20037;-85
2022/10/05 01:13:50;;;;;;;0.30;0.30;;;;;;;12.22;57.21;100647.41;5046930;28;20033;-84
2022/10/05 01:16:28;;;;;;;0.30;0.30;;;;;;;12.17;57.57;100651.81;5046993;28;20029;-84
2022/10/05 01:19:26;;;;;;;4.85;0.90;;;;;;;12.07;57.55;100631.63;5047341;28;20037;-85
2022/10/05 01:21:59;;;;;;;0.55;0.55;;;;;;;12.04;57.27;100645.72;5046654;28;20044;-85
2022/10/05 01:24:33;;;;;;;0.40;0.40;;;;;;;11.97;57.66;100660.75;5047357;28;20040;-85
2022/10/05 01:27:17;;;;;;;0.30;0.30;;;;;;;11.94;57.82;100655.50;5047267;28;20043;-84
2022/10/05 01:29:53;;;;;;;0.30;0.30;;;;;;;11.89;58.06;100656.34;5046331;28;20036;-85
2022/10/05 01:32:34;;;;;;;0.43;0.43;;;;;;;11.89;57.87;100651.94;5034517;28;20030;-85
2022/10/05 01:35:06;;;;;;;0.60;0.60;;;;;;;11.81;58.34;100638.75;5027356;28;20048;-84
2022/10/05 01:37:54;;;;;;;0.30;0.30;;;;;;;11.74;58.75;100660.84;5042963;28;20036;-85
2022/10/05 01:40:20;;;;;;;0.47;0.47;;;;;;;11.78;58.43;100670.50;5037528;28;20045;-83
2022/10/05 01:43:00;;;;;;;;;;;;;;;11.69;58.81;100669.66;5046668;28;20064;-84
2022/10/05 01:45:50;;;;;;;0.95;0.95;;;;;;;11.70;59.02;100668.78;5046612;28;19936;-83
2022/10/05 01:48:43;;;;;;;0.45;0.45;;;;;;;11.63;58.76;100658.25;5045457;28;20491;-85
2022/10/05 01:51:14;;;;;;;0.30;0.30;;;;;;;11.61;58.85;100667.91;5045656;28;20032;-85
2022/10/05 01:54:20;;;;;;;1.33;1.02;;;;;;;11.53;59.34;100669.72;5046136;28;20777;-86
2022/10/05 01:57:08;;;;;;;0.65;0.65;;;;;;;11.52;59.38;100662.66;5041818;28;20486;-85
2022/10/05 01:59:50;;;;;;;0.30;0.30;;;;;;;11.55;59.45;100672.34;5046685;28;20045;-84
2022/10/05 02:02:18;;;;;;;0.40;0.40;;;;;;;11.51;59.13;100660.03;5046523;28;20079;-86
2022/10/05 02:05:03;;;;;;;0.35;0.35;;;;;;;11.51;59.64;100668.84;5046176;28;20037;-84
2022/10/05 02:07:44;;;;;;;0.88;0.88;;;;;;;11.46;59.90;100662.69;5046570;28;20120;-85
2022/10/05 02:10:31;;;;;;;0.50;0.50;;;;;;;11.26;59.53;100668.94;5046152;28;20040;-85
2022/10/05 02:13:11;;;;;;;0.30;0.30;;;;;;;10.74;60.49;100653.16;5046497;28;20522;-86
2022/10/05 02:15:44;;;;;;;0.68;0.68;;;;;;;11.16;60.50;100700.63;5045975;28;20107;-85
2022/10/05 02:18:17;;;;;;;0.90;0.90;;;;;;;11.01;61.25;100691.84;5046068;28;20037;-85
2022/10/05 02:20:45;;;;;;;0.38;0.38;;;;;;;10.90;60.89;100678.63;5045816;28;20115;-84
2022/10/05 02:23:17;;;;;;;0.40;0.40;;;;;;;11.30;60.57;100717.34;5046538;28;20037;-84
2022/10/05 02:25:46;;;;;;;1.38;1.27;;;;;;;11.36;61.08;100719.97;5046946;28;20114;-84
2022/10/05 02:29:00;;;;;;;0.65;0.65;;;;;;;11.19;61.41;100713.84;5046639;28;20516;-84
2022/10/05 02:31:44;;;;;;;0.52;0.52;;;;;;;11.18;61.88;100720.84;5045484;28;20057;-85
2022/10/05 02:34:30;;;;;;;1.25;0.93;;;;;;;11.14;61.20;100726.16;5046298;28;20040;-84
2022/10/05 02:37:08;;;;;;;0.57;0.50;;;;;;;11.11;61.35;100738.47;5042463;28;20414;-85
2022/10/05 02:39:51;;;;;;;0.40;0.40;;;;;;;10.99;61.12;100705.94;5046382;28;20028;-85
2022/10/05 02:42:40;;;;;;;0.40;0.40;;;;;;;10.98;61.55;100710.31;5046054;28;20106;-85
2022/10/05 02:45:16;;;;;;;0.73;0.73;;;;;;;11.05;60.77;100713.84;5046169;28;20036;-86
2022/10/05 02:47:50;;;;;;;;;;;;;;;11.08;61.44;100742.91;5053548;28;20033;-85
2022/10/05 02:50:32;;;;;;;0.30;0.30;;;;;;;10.88;62.05;100724.41;5046229;28;19920;-84
2022/10/05 02:53:00;;;;;;;4.93;1.75;;;;;;;10.68;62.50;100727.03;5048832;28;20210;-85
2022/10/05 02:56:07;;;;;;;0.40;0.40;;;;;;;10.73;62.45;100717.34;5049612;28;20029;-84
2022/10/05 02:59:02;;;;;;;0.38;0.38;;;;;;;10.64;63.13;100743.75;5049363;28;20040;-86
2022/10/05 03:02:00;;;;;;;0.60;0.60;;;;;;;10.68;62.99;100743.75;5052049;28;20124;-84
2022/10/05 03:04:53;;;;;;;2.60;2.40;;;;;;;10.81;63.08;100747.25;5029596;28;20041;-84
2022/10/05 03:07:22;;;;;;;0.65;0.65;;;;;;;10.90;62.93;100751.69;5032197;28;20043;-84
2022/10/05 03:10:05;;;;;;;0.60;0.60;;;;;;;10.73;62.89;100741.13;5049492;28;20036;-86
2022/10/05 03:12:44;;;;;;;0.82;0.82;;;;;;;10.88;62.77;100745.53;5048493;28;20037;-84
2022/10/05 03:15:18;;;;;;;1.38;1.27;;;;;;;10.94;62.47;100753.47;5049209;28;20057;-84
2022/10/05 03:18:21;;;;;;;1.38;1.38;;;;;;;10.74;62.98;100750.81;5049038;28;20120;-84
2022/10/05 03:21:02;;;;;;;0.90;0.68;;;;;;;10.56;63.64;100741.97;5025770;28;20056;-85
2022/10/05 03:23:46;;;;;;;0.65;0.65;;;;;;;9.98;65.35;100749.69;5041679;28;20073;-85
2022/10/05 03:26:14;;;;;;;0.77;0.77;;;;;;;9.99;65.19;100756.69;5050128;28;20083;-85
2022/10/05 03:28:57;;;;;;;0.60;0.60;;;;;;;9.75;66.23;100741.69;5048910;28;20029;-83
2022/10/05 03:31:38;;;;;;;0.40;0.40;;;;;;;9.73;66.59;100728.50;5041578;28;20036;-87
2022/10/05 03:34:18;;;;;;;0.88;0.88;;;;;;;10.00;66.22;100738.25;5048614;28;20029;-84
2022/10/05 03:36:56;;;;;;;0.40;0.40;;;;;;;10.39;65.21;100748.97;5048066;28;20086;-83
2022/10/05 03:39:53;;;;;;;0.85;0.85;;;;;;;10.52;64.57;100753.41;5048664;28;20037;-85
2022/10/05 03:42:34;;;;;;;2.03;1.92;;;;;;;10.35;64.86;100760.41;5040064;28;20071;-84
2022/10/05 03:45:29;;;;;;;0.60;0.60;;;;;;;10.59;64.01;100762.19;5048524;28;20043;-84
2022/10/05 03:48:04;;;;;;;1.05;1.05;;;;;;;10.31;64.29;100742.75;5047969;28;20147;-85
2022/10/05 03:50:39;;;;;;;1.00;1.00;;;;;;;10.58;63.78;100765.72;5048515;28;20150;-85
2022/10/05 03:53:15;;;;;;;0.40;0.40;;;;;;;10.47;63.77;100770.09;5050927;28;20033;-85
2022/10/05 03:56:21;;;;;;;2.35;2.15;;;;;;;10.72;62.97;100757.81;5048473;28;20040;-85
2022/10/05 03:59:15;;;;;;;0.98;0.98;;;;;;;10.76;63.38;100767.50;5047921;28;20033;-84
2022/10/05 04:01:50;;;;;;;0.53;0.53;;;;;;;10.79;63.44;100772.78;5046866;28;20113;-85
2022/10/05 04:04:34;;;;;;;0.70;0.70;;;;;;;10.82;63.34;100777.19;5047532;28;20298;-84
2022/10/05 04:07:01;;;;;;;1.75;1.65;;;;;;;10.82;63.61;100769.28;5048622;28;20041;-85
2022/10/05 04:09:32;;;;;;;0.50;0.50;;;;;;;10.71;63.50;100783.34;5048475;28;20044;-85
2022/10/05 04:12:29;;;;;;;0.40;0.40;;;;;;;10.78;62.86;100771.03;5047950;28;20099;-85
2022/10/05 04:15:22;;;;;;;0.60;0.60;;;;;;;10.89;62.40;100779.84;5044754;28;20178;-86
2022/10/05 04:17:55;;;;;;;0.60;0.60;;;;;;;10.69;62.68;100765.72;5036628;28;20037;-85
2022/10/05 04:20:47;;;;;;;0.52;0.50;;;;;;;10.64;62.24;100796.50;5044086;28;20032;-86
2022/10/05 04:23:30;;;;;;;0.50;0.50;;;;;;;10.28;62.66;100785.81;5060576;28;20407;-85
2022/10/05 04:26:05;;;;;;;0.50;0.50;;;;;;;10.31;63.24;100809.56;5042757;28;20116;-86
2022/10/05 04:28:40;;;;;;;2.05;1.95;;;;;;;10.38;63.05;100813.16;5043221;28;20132;-85
2022/10/05 04:31:12;;;;;;;1.10;1.10;;;;;;;10.22;63.91;100798.97;5044761;28;20036;-85
2022/10/05 04:33:37;;;;;;;0.68;0.68;;;;;;;10.26;64.19;100815.72;5047505;28;20051;-85
2022/10/05 04:36:20;;;;;;;;;;;;;;;10.33;63.99;100828.06;5047515;28;20612;-85
2022/10/05 04:38:48;;;;;;;0.43;0.43;;;;;;;10.18;64.03;100827.09;5046093;28;19982;-85
2022/10/05 04:41:29;;;;;;;12.18;2.67;;;;;;;10.17;63.85;100822.69;5047501;28;20260;-85
2022/10/05 04:44:00;;;;;;;0.75;0.75;;;;;;;10.10;63.82;100823.56;5046579;28;20519;-85
2022/10/05 04:46:44;;;;;;;10.35;2.55;;;;;;;9.96;64.29;100825.22;5048072;28;20033;-85
2022/10/05 04:49:18;;;;;;;1.05;1.05;;;;;;;10.01;64.15;100829.66;5047352;28;20499;-87
2022/10/05 04:52:02;;;;;;;0.57;0.57;;;;;;;9.98;63.99;100820.88;5035548;28;20048;-86
2022/10/05 04:54:42;;;;;;;0.75;0.75;;;;;;;9.83;64.45;100811.09;5047113;28;20522;-89
2022/10/05 04:57:18;;;;;;;0.50;0.50;;;;;;;9.75;64.43;100799.66;5047418;28;20138;-86
2022/10/05 04:59:53;;;;;;;1.25;1.20;;;;;;;9.84;64.71;100839.22;5046970;28;20067;-86
2022/10/05 05:02:49;;;;;;;1.50;1.40;;;;;;;9.83;64.94;100829.56;5046166;28;20147;-86
2022/10/05 05:05:23;;;;;;;1.00;0.93;;;;;;;9.93;64.93;100847.19;5047085;28;20278;-87
2022/10/05 05:08:01;;;;;;;0.63;0.63;;;;;;;10.18;64.47;100839.41;5047356;28;20032;-85
2022/10/05 05:10:51;;;;;;;1.38;1.35;;;;;;;10.24;64.55;100836.81;5047344;28;20045;-86
2022/10/05 05:13:22;;;;;;;1.48;1.02;;;;;;;10.17;65.67;100849.06;5045663;28;20032;-84
2022/10/05 05:15:56;;;;;;;0.77;0.77;;;;;;;10.20;65.14;100827.97;5041612;28;20049;-83
2022/10/05 05:18:51;;;;;;;0.60;0.60;;;;;;;10.53;65.60;100852.78;5033721;28;20044;-84
2022/10/05 05:21:38;;;;;;;1.20;1.20;;;;;;;10.69;64.77;100856.34;5040759;28;20033;-84
2022/10/05 05:24:19;;;;;;;1.30;1.25;;;;;;;10.76;64.62;100854.59;5045400;28;20520;-85
2022/10/05 05:27:14;;;;;;;2.45;2.28;;;;;;;10.63;65.27;100851.06;5049414;28;20049;-84
2022/10/05 05:29:55;;;;;;;0.70;0.70;;;;;;;10.82;65.29;100857.25;5039245;28;20028;-85
2022/10/05 05:32:45;;;;;;;1.73;1.63;;;;;;;11.02;65.96;100867.00;5043407;28;20491;-85
2022/10/05 05:35:38;;;;;;;0.40;0.40;;;;;;;11.31;65.68;100856.47;5044436;28;20071;-85
2022/10/05 05:38:22;;;;;;;1.45;0.88;;;;;;;11.61;64.73;100863.47;5043811;28;20043;-84
2022/10/05 05:40:51;;;;;;;0.45;0.45;;;;;;;11.53;63.38;100836.19;5045270;28;20029;-83
2022/10/05 05:43:25;;;;;;;0.47;0.47;;;;;;;12.08;61.65;100864.34;5036759;28;20095;-84
2022/10/05 05:46:09;;;;;;;0.65;0.65;;;;;;;12.52;60.36;100873.88;5045758;28;20123;-83
2022/10/05 05:48:38;;;;;;;0.70;0.70;;;;;;;12.95;58.52;100863.97;5046302;28;20072;-85
2022/10/05 05:51:13;;;;;;;0.30;0.30;;;;;;;13.24;57.08;100877.03;5045559;28;20041;-84
2022/10/05 05:53:41;;;;;;;0.60;0.60;;;;;;;13.62;56.54;100886.47;5046275;28;20029;-85
2022/10/05 05:56:18;;;;;;;0.30;0.30;;;;;;;13.53;56.21;100837.06;5046080;28;20186;-85
2022/10/05 05:58:55;;;;;;;0.50;0.50;;;;;;;14.02;55.15;100882.56;5046111;28;20683;-85
2022/10/05 06:01:36;;;;;;;0.40;0.40;;;;;;;14.14;54.34;100878.00;5045473;28;20498;-85
2022/10/05 06:04:11;;;;;;;0.65;0.65;;;;;;;14.26;54.18;100900.00;5046796;28;20028;-85
2022/10/05 06:06:43;;;;;;;0.98;0.95;;;;;;;14.50;53.36;100877.59;5046612;28;20047;-85
2022/10/05 06:09:25;;;;;;;0.20;0.20;;;;;;;14.78;51.91;100886.13;5046549;28;20029;-84
2022/10/05 06:12:19;;;;;;;0.82;0.82;;;;;;;15.01;53.43;100887.56;5046112;28;20537;-85
2022/10/05 06:14:51;;;;;;;0.45;0.45;;;;;;;15.43;52.18;100913.53;5046231;28;20742;-85
2022/10/05 06:17:46;;;;;;;0.50;0.50;;;;;;;15.68;50.97;100922.88;5046227;28;20045;-86
2022/10/05 06:20:38;;;;;;;1.85;1.75;;;;;;;15.77;51.37;100919.22;5046489;28;20049;-85
2022/10/05 06:23:11;;;;;;;0.60;0.60;;;;;;;15.40;51.79;100901.19;5045983;28;20115;-85
2022/10/05 06:25:42;;;;;;;3.80;3.38;;;;;;;15.80;51.62;100937.81;5047521;28;20379;-84
2022/10/05 06:28:11;;;;;;;0.80;0.77;;;;;;;15.80;50.83;100934.25;5050685;28;20117;-85
2022/10/05 06:30:55;;;;;;;2.42;2.30;;;;;;;15.98;51.13;100943.72;5050372;28;20113;-85
2022/10/05 06:33:27;;;;;;;0.80;0.80;;;;;;;16.02;50.74;100943.63;5049926;28;20033;-85
2022/10/05 06:36:06;;;;;;;0.70;0.70;;;;;;;15.95;51.70;100935.78;5050909;28;20029;-85
2022/10/05 06:38:47;;;;;;;0.75;0.75;;;;;;;16.45;49.96;100936.59;5050627;28;20029;-85
2022/10/05 06:41:47;;;;;;;0.30;0.30;;;;;;;16.27;49.06;100917.44;5050080;28;20021;-85
2022/10/05 06:44:15;;;;;;;0.43;0.43;;;;;;;16.87;49.17;100931.38;5050126;28;20032;-85
2022/10/05 06:47:01;;;;;;;0.55;0.55;;;;;;;16.74;48.42;100943.13;5049978;28;20029;-85
2022/10/05 06:49:35;;;;;;;0.55;0.55;;;;;;;16.78;48.90;100936.84;5049968;28;20092;-85
2022/10/05 06:52:28;;;;;;;0.30;0.30;;;;;;;17.28;47.56;100926.00;5050571;28;20033;-85
2022/10/05 06:55:11;;;;;;;0.30;0.30;;;;;;;17.33;47.55;100925.00;5043245;28;20041;-86
2022/10/05 06:58:09;;;;;;;7.55;1.08;;;;;;;17.03;46.49;100913.22;5050098;28;20037;-85
2022/10/05 07:00:56;;;;;;;0.20;0.20;;;;;;;16.83;47.18;100926.97;5049800;28;20041;-86
2022/10/05 07:03:34;;;;;;;0.13;0.13;;;;;;;16.70;46.64;100913.03;5050142;28;20033;-86
2022/10/05 07:06:14;;;;;;;1.10;1.05;;;;;;;16.93;46.85;100915.25;5049599;28;20041;-86
2022/10/05 07:08:51;;;;;;;0.10;0.10;;;;;;;16.90;46.75;100923.31;5049719;28;20029;-85
2022/10/05 07:11:35;;;;;;;1.13;0.65;;;;;;;16.67;46.90;100923.75;5049646;28;20040;-86
2022/10/05 07:14:23;;;;;;;0.22;0.22;;;;;;;16.73;46.95;100899.66;5049316;28;20139;-87
2022/10/05 07:17:13;;;;;;;0.30;0.30;;;;;;;16.88;46.09;100921.56;5050726;28;20041;-87
2022/10/05 07:20:09;;;;;;;0.10;0.10;;;;;;;16.93;45.59;100919.66;5051478;28;20037;-88
2022/10/05 07:23:09;;;;;;;0.10;0.10;;;;;;;17.23;45.66;100931.44;5050789;28;20134;-86
2022/10/05 07:26:00;;;;;;;0.10;0.10;;;;;;;17.16;45.42;100919.16;5049464;28;20036;-86
2022/10/05 07:29:09;;;;;;;0.55;0.55;;;;;;;17.33;44.70;100900.09;5051191;28;20434;-88
2022/10/05 07:32:13;;;;;;;0.20;0.20;;;;;;;17.65;43.86;100917.13;4990938;28;20853;-83
2022/10/05 07:34:52;;;;;;;0.40;0.30;;;;;;;17.85;44.19;100929.97;5007559;28;20034;-86
2022/10/05 07:37:55;;;;;;;0.10;0.10;;;;;;;17.98;43.38;100902.09;5044550;28;20502;-87
2022/10/05 07:40:55;;;;;;;0.35;0.35;;;;;;;17.96;43.10;100935.94;5049149;28;20029;-88
2022/10/05 07:43:42;;;;;;;0.50;0.50;;;;;;;18.11;43.58;100899.94;5048578;28;20415;-87
2022/10/05 07:46:48;;;;;;;0.20;0.20;;;;;;;18.15;42.59;100904.28;5048937;28;20056;-87
2022/10/05 07:49:53;;;;;;;0.32;0.32;;;;;;;18.32;43.54;100919.84;5048908;28;20037;-92
2022/10/05 07:52:22;;;;;;;;;;;;;;;18.43;42.62;100914.22;5049299;28;20036;-88
2022/10/05 07:55:20;;;;;;;0.85;0.85;;;;;;;18.68;41.41;100918.84;5049009;28;19921;-90
2022/10/05 07:58:15;;;;;;;0.90;0.65;;;;;;;18.75;41.58;100923.06;5048648;28;20123;-88
2022/10/05 08:00:47;;;;;;;1.38;1.25;;;;;;;18.85;41.30;100919.25;5048989;28;20120;-88
2022/10/05 08:03:22;;;;;;;0.10;0.10;;;;;;;18.60;41.36;100935.97;5048578;28;20086;-87
2022/10/05 08:05:48;;;;;;;0.10;0.10;;;;;;;18.65;41.33;100906.44;5048715;28;20032;-89
2022/10/05 08:08:31;;;;;;;0.30;0.30;;;;;;;19.16;39.97;100929.00;5048151;28;20641;-88
2022/10/05 08:11:23;;;;;;;0.70;0.52;;;;;;;19.16;39.85;100931.69;5047311;28;20037;-88
2022/10/05 08:13:59;;;;;;;1.15;1.00;;;;;;;19.07;39.51;100929.31;5048386;28;20036;-88
2022/10/05 08:16:28;;;;;;;0.20;0.20;;;;;;;19.41;39.36;100929.09;5047959;28;20025;-88
2022/10/05 08:19:32;;;;;;;0.30;0.30;;;;;;;19.43;38.68;100913.91;5048171;28;20033;-88
2022/10/05 08:22:08;;;;;;;1.40;1.13;;;;;;;19.14;39.16;100920.19;4986379;28;20057;-87
2022/10/05 08:24:46;;;;;;;0.10;0.10;;;;;;;19.07;39.63;100940.00;5039609;28;20534;-88
2022/10/05 08:27:24;;;;;;;0.35;0.35;;;;;;;19.12;39.29;100928.25;5048251;28;20064;-88
2022/10/05 08:30:03;;;;;;;0.17;0.17;;;;;;;19.54;39.15;100929.59;5047781;28;20103;-87
2022/10/05 08:32:39;;;;;;;14.18;0.77;;;;;;;19.45;39.04;100904.00;5046915;28;20430;-87
2022/10/05 08:35:32;;;;;;;0.25;0.25;;;;;;;19.05;39.38;100937.38;5063768;28;20048;-91
2022/10/05 08:38:00;;;;;;;1.15;1.15;;;;;;;19.11;39.47;100929.16;5048200;28;20059;-87
2022/10/05 08:41:10;;;;;;;0.20;0.20;;;;;;;18.88;39.91;100912.94;5047991;28;20029;-88
2022/10/05 08:43:59;;;;;;;0.10;0.10;;;;;;;19.25;40.29;100915.34;5045930;28;20493;-87
2022/10/05 08:46:58;;;;;;;0.20;0.20;;;;;;;19.59;39.00;100921.44;5047511;28;20033;-88
2022/10/05 08:50:02;;;;;;;1.90;0.55;;;;;;;19.32;38.78;100918.69;5046692;28;20029;-87
2022/10/05 08:53:04;;;;;;;0.10;0.10;;;;;;;19.13;38.85;100891.66;5047737;28;20029;-90
2022/10/05 08:55:35;;;;;;;0.10;0.10;;;;;;;19.10;38.50;100899.78;5047969;28;20047;-88
2022/10/05 08:58:19;;;;;;;0.43;0.38;;;;;;;19.19;37.99;100918.22;5047697;28;20419;-86
2022/10/05 09:01:08;;;;;;;0.25;0.25;;;;;;;19.34;38.90;100903.50;5047424;28;20029;-87
2022/10/05 09:03:59;;;;;;;0.43;0.43;;;;;;;19.66;38.85;100891.72;5046524;28;20499;-87
2022/10/05 09:07:02;;;;;;;0.25;0.20;;;;;;;19.53;38.28;100886.84;5040929;28;20032;-87
2022/10/05 09:09:46;;;;;;;0.52;0.52;;;;;;;19.45;37.76;100889.78;5043295;28;20502;-87
2022/10/05 09:12:30;;;;;;;0.10;0.10;;;;;;;19.80;37.98;100895.75;5048385;28;20722;-88
2022/10/05 09:15:15;;;;;;;0.10;0.10;;;;;;;20.25;37.41;100896.88;5047343;28;20606;-89
2022/10/05 09:18:06;;;;;;;0.20;0.20;;;;;;;20.14;36.23;100891.91;5046856;28;20116;-89
2022/10/05 09:20:34;;;;;;;0.30;0.30;;;;;;;19.97;36.44;100895.16;5060017;28;20138;-87
2022/10/05 09:23:15;;;;;;;0.30;0.30;;;;;;;19.94;34.92;100892.59;5042779;28;20047;-89
2022/10/05 09:25:56;;;;;;;0.20;0.20;;;;;;;20.17;35.72;100903.41;5044938;28;20119;-88
2022/10/05 09:28:21;;;;;;;0.10;0.10;;;;;;;20.04;34.73;100894.03;5037064;28;20032;-88
2022/10/05 09:30:56;;;;;;;0.40;0.40;;;;;;;20.15;34.01;100894.50;5044509;28;20399;-88
2022/10/05 09:33:34;;;;;;;0.10;0.10;;;;;;;20.32;33.59;100890.38;5043986;28;20048;-88
2022/10/05 09:36:37;;;;;;;0.10;0.10;;;;;;;20.38;34.43;100874.94;5044415;28;20029;-87
2022/10/05 09:39:40;;;;;;;1.02;0.50;;;;;;;20.07;34.68;100888.56;5039811;28;20076;-88
2022/10/05 09:42:29;;;;;;;0.20;0.20;;;;;;;20.13;35.08;100887.50;5045474;28;20028;-86
2022/10/05 09:45:34;;;;;;;8.02;0.90;;;;;;;20.55;34.40;100882.34;5039949;28;20048;-87
2022/10/05 09:48:24;;;;;;;0.10;0.10;;;;;;;20.76;34.82;100890.53;5042440;28;20040;-86
2022/10/05 09:51:08;;;;;;;0.15;0.15;;;;;;;20.69;32.83;100889.88;5046393;28;20479;-86
2022/10/05 09:53:52;;;;;;;0.30;0.20;;;;;;;20.54;33.08;100894.00;5046158;28;20059;-85
2022/10/05 09:56:43;;;;;;;0.80;0.38;;;;;;;20.59;32.98;100877.75;5046083;28;20029;-85
2022/10/05 09:59:33;;;;;;;0.10;0.10;;;;;;;20.81;33.47;100888.56;5045096;28;20704;-86
2022/10/05 10:02:03;;;;;;;0.88;0.88;;;;;;;20.86;33.51;100893.72;5049498;28;20510;-85
2022/10/05 10:04:43;;;;;;;0.50;0.50;;;;;;;20.82;33.82;100897.47;5050287;28;20039;-87
2022/10/05 10:07:34;;;;;;;0.22;0.22;;;;;;;20.84;34.15;100890.25;5051052;28;20033;-86
2022/10/05 10:10:21;;;;;;;0.65;0.65;;;;;;;20.68;33.91;100895.31;5050989;28;20037;-88
2022/10/05 10:13:11;;;;;;;2.80;0.98;;;;;;;20.81;34.02;100895.72;5050536;28;20047;-86
2022/10/05 10:15:58;;;;;;;0.22;0.20;;;;;;;20.68;33.26;100884.59;5050736;28;20049;-85
2022/10/05 10:19:11;;;;;;;4.78;1.95;;;;;;;20.70;33.48;100885.41;5050742;28;20195;-85
2022/10/05 10:21:58;;;;;;;0.10;0.10;;;;;;;20.96;33.72;100883.50;5045291;28;20047;-86
2022/10/05 10:24:40;;;;;;;1.00;0.95;;;;;;;20.78;32.75;100858.31;5050334;28;20410;-85
2022/10/05 10:27:18;;;;;;;0.22;0.22;;;;;;;20.61;33.05;100873.19;5050601;28;20033;-88
2022/10/05 10:30:17;;;;;;;0.10;0.10;;;;;;;20.54;33.13;100869.00;5049961;28;20033;-85
2022/10/05 10:33:12;;;;;;;0.20;0.20;;;;;;;20.72;32.81;100872.81;5050381;28;20033;-85
2022/10/05 10:35:49;;;;;;;;;;;;;;;20.77;32.17;100876.19;5050803;28;20045;-86
2022/10/05 10:38:40;;;;;;;0.32;0.32;;;;;;;20.62;32.13;100871.38;5050483;28;19966;-87
2022/10/05 10:41:05;;;;;;;1.27;0.77;;;;;;;20.61;32.23;100857.13;5050509;28;20029;-87
2022/10/05 10:43:42;;;;;;;2.63;2.28;;;;;;;20.63;32.27;100863.28;5050435;28;20037;-85
2022/10/05 10:46:19;;;;;;;0.50;0.50;;;;;;;20.83;32.25;100854.50;5050268;28;20770;-88
2022/10/05 10:48:49;;;;;;;0.22;0.20;;;;;;;21.03;31.66;100860.88;5050165;28;20039;-86
2022/10/05 10:51:30;;;;;;;0.20;0.20;;;;;;;20.93;32.52;100853.22;5049272;28;20116;-87
2022/10/05 10:53:57;;;;;;;0.35;0.35;;;;;;;20.87;31.79;100857.97;5049177;28;20041;-87
2022/10/05 10:56:31;;;;;;;0.45;0.45;;;;;;;20.93;31.63;100865.75;5048815;28;20033;-86
2022/10/05 10:59:18;;;;;;;0.30;0.30;;;;;;;21.07;31.80;100859.84;5049193;28;20037;-86
2022/10/05 11:02:21;;;;;;;0.20;0.20;;;;;;;21.15;31.09;100859.50;5047893;28;20072;-87
2022/10/05 11:05:14;;;;;;;1.73;1.17;;;;;;;21.37;30.97;100856.84;5049408;28;20053;-87
2022/10/05 11:07:49;;;;;;;0.30;0.30;;;;;;;21.55;32.03;100852.50;5049470;28;20033;-85
2022/10/05 11:10:29;;;;;;;0.10;0.10;;;;;;;21.69;30.94;100825.97;5049458;28;20507;-84
2022/10/05 11:13:27;;;;;;;7.90;1.85;;;;;;;21.32;31.02;100845.41;5048618;28;20064;-84
2022/10/05 11:16:43;;;;;;;0.77;0.68;;;;;;;21.05;31.96;100838.44;5064359;28;20102;-84
2022/10/05 11:19:31;;;;;;;0.20;0.20;;;;;;;21.27;32.03;100843.78;4987578;28;20038;-85
2022/10/05 11:22:12;;;;;;;0.50;0.50;;;;;;;21.34;31.71;100841.72;4988047;28;20042;-84
2022/10/05 11:25:11;;;;;;;0.20;0.20;;;;;;;21.28;30.87;100848.19;5031381;28;20040;-84
2022/10/05 11:27:48;;;;;;;0.68;0.28;;;;;;;21.64;30.82;100838.69;5049394;28;20041;-84
2022/10/05 11:30:35;;;;;;;0.22;0.22;;;;;;;21.31;30.69;100828.44;5049255;28;20032;-86
2022/10/05 11:33:12;;;;;;;0.28;0.28;;;;;;;21.22;31.00;100818.94;5049386;28;20552;-85
2022/10/05 11:35:47;;;;;;;0.65;0.65;;;;;;;21.20;30.84;100834.25;5048842;28;20468;-86
2022/10/05 11:38:50;;;;;;;0.20;0.20;;;;;;;21.18;30.69;100833.44;5049558;28;20590;-85
2022/10/05 11:41:24;;;;;;;0.10;0.10;;;;;;;21.68;31.08;100832.28;5048983;28;20060;-85
2022/10/05 11:43:58;;;;;;;0.25;0.25;;;;;;;21.69;30.66;100827.75;5049030;28;20037;-85
2022/10/05 11:46:32;;;;;;;0.30;0.25;;;;;;;21.49;30.53;100809.78;5048879;28;20084;-85
2022/10/05 11:49:10;;;;;;;5.47;1.33;;;;;;;21.63;31.33;100813.66;5048872;28;20067;-85
2022/10/05 11:51:54;;;;;;;0.00;0.00;;;;;;;21.82;30.61;100816.41;5049578;28;20056;-85
2022/10/05 11:54:33;;;;;;;6.55;0.75;;;;;;;21.27;31.01;100803.53;5048542;28;20044;-85
2022/10/05 11:57:08;;;;;;;0.00;0.00;;;;;;;21.71;31.80;100799.06;5048699;28;20033;-85
2022/10/05 11:59:45;;;;;;;0.52;0.20;;;;;;;21.76;31.12;100802.41;5048280;28;20452;-84
2022/10/05 12:02:12;;;;;;;0.20;0.20;;;;;;;21.68;31.00;100809.94;5048544;28;20091;-85
2022/10/05 12:05:19;;;;;;;0.20;0.20;;;;;;;21.91;30.61;100803.53;5047108;28;20461;-84
2022/10/05 12:08:26;;;;;;;0.60;0.60;;;;;;;21.84;30.51;100785.94;5048502;28;20052;-85
2022/10/05 12:11:19;;;;;;;0.10;0.10;;;;;;;21.75;30.53;100797.97;5040310;28;20106;-84
2022/10/05 12:14:03;;;;;;;0.63;0.63;;;;;;;21.68;30.89;100778.56;5048193;28;20075;-85
2022/10/05 12:16:45;;;;;;;0.25;0.25;;;;;;;21.71;29.92;100767.69;5048460;28;20479;-84
2022/10/05 12:19:28;;;;;;;0.10;0.10;;;;;;;21.82;30.52;100794.94;5063610;28;20033;-84
2022/10/05 12:22:03;;;;;;;0.00;0.00;;;;;;;22.04;29.71;100796.66;5048646;28;20029;-85
2022/10/05 12:24:35;;;;;;;0.10;0.10;;;;;;;21.97;30.25;100793.38;5047582;28;20037;-84
2022/10/05 12:27:04;;;;;;;0.17;0.17;;;;;;;21.77;29.86;100774.63;5048580;28;20124;-84
2022/10/05 12:29:33;;;;;;;0.10;0.10;;;;;;;22.03;29.58;100783.28;5048416;28;20064;-84
2022/10/05 12:32:17;;;;;;;0.10;0.10;;;;;;;21.82;28.83;100773.44;5048261;28;20033;-84
2022/10/05 12:35:17;;;;;;;0.55;0.45;;;;;;;21.74;29.14;100769.38;5047753;28;20037;-84
2022/10/05 12:38:11;;;;;;;0.35;0.30;;;;;;;21.73;29.73;100773.84;5048179;28;20046;-83